Time;durP1;ratioP1;P1;durP2;ratioP2;P2;SDS_P1;SDS_P2;PMS_P1;PMS_P2;Temp;Humidity;BMP_temperature;BMP_pressure;BME280_temperature;BME280_humidity;BME280_pressure;Samples;Min_cycle;Max_cycle;Signal;HPM_P1;HPM_P2
2023/05/16 00:01:57;;;;;;;19.37;16.37;;;;;;;11.47;100.00;98877.31;4961923;28;20195;-77
2023/05/16 00:04:32;;;;;;;18.97;16.93;;;;;;;11.43;100.00;98873.19;4986786;28;20289;-77
2023/05/16 00:07:17;;;;;;;19.63;17.33;;;;;;;11.44;100.00;98874.03;4976241;28;20326;-77
2023/05/16 00:09:54;;;;;;;21.23;18.13;;;;;;;11.43;100.00;98877.66;4991581;28;20207;-77
2023/05/16 00:12:29;;;;;;;22.73;18.37;;;;;;;11.47;100.00;98881.75;4992191;28;20206;-77
2023/05/16 00:14:59;;;;;;;23.73;19.37;;;;;;;11.46;100.00;98878.25;4990483;28;20199;-78
2023/05/16 00:17:37;;;;;;;26.13;19.87;;;;;;;11.36;100.00;98879.03;4988625;28;20199;-77
2023/05/16 00:20:13;;;;;;;24.63;17.87;;;;;;;11.41;100.00;98877.75;4986605;28;20212;-77
2023/05/16 00:22:47;;;;;;;23.73;20.10;;;;;;;11.45;100.00;98881.03;4973445;28;20265;-77
2023/05/16 00:25:21;;;;;;;21.30;19.00;;;;;;;11.36;100.00;98876.38;4994128;28;20293;-77
2023/05/16 00:27:58;;;;;;;21.70;18.30;;;;;;;11.42;100.00;98879.44;4992570;28;20198;-77
2023/05/16 00:30:35;;;;;;;19.67;17.30;;;;;;;11.38;100.00;98882.41;4988344;28;20195;-77
2023/05/16 00:33:13;;;;;;;19.93;17.57;;;;;;;11.39;100.00;98886.78;4992250;28;20283;-77
2023/05/16 00:35:44;;;;;;;18.73;16.40;;;;;;;11.35;100.00;98880.84;4988559;28;20187;-77
2023/05/16 00:38:15;;;;;;;22.03;17.70;;;;;;;11.33;100.00;98881.91;4990509;28;20253;-77
2023/05/16 00:40:52;;;;;;;20.97;17.87;;;;;;;11.28;100.00;98882.22;4961423;28;20191;-77
2023/05/16 00:43:29;;;;;;;22.70;18.27;;;;;;;11.14;100.00;98875.28;4988769;28;20219;-77
2023/05/16 00:46:01;;;;;;;21.60;17.70;;;;;;;11.08;100.00;98877.50;4974641;28;20194;-77
2023/05/16 00:48:33;;;;;;;23.00;17.37;;;;;;;11.02;100.00;98870.00;4991842;28;20245;-78
2023/05/16 00:51:10;;;;;;;23.30;18.50;;;;;;;10.94;100.00;98875.00;4991470;28;20207;-77
2023/05/16 00:53:52;;;;;;;20.10;16.87;;;;;;;10.89;100.00;98872.63;4989499;28;20206;-77
2023/05/16 00:56:25;;;;;;;23.20;18.83;;;;;;;11.01;100.00;98873.59;4992156;28;20199;-77
2023/05/16 00:58:59;;;;;;;31.67;19.30;;;;;;;11.00;100.00;98867.47;4988233;28;20203;-77
2023/05/16 01:01:43;;;;;;;25.37;19.77;;;;;;;11.04;100.00;98882.19;4948683;28;20208;-77
2023/05/16 01:04:14;;;;;;;28.63;20.30;;;;;;;11.03;100.00;98883.13;4948129;29;20231;-77
2023/05/16 01:06:48;;;;;;;24.67;19.90;;;;;;;11.20;100.00;98889.91;4952583;29;20200;-77
2023/05/16 01:09:19;;;;;;;28.47;21.77;;;;;;;11.15;100.00;98889.38;4943937;29;20283;-77
2023/05/16 01:12:02;;;;;;;27.43;20.63;;;;;;;11.13;100.00;98888.63;4946170;29;20291;-77
2023/05/16 01:14:49;;;;;;;26.90;20.33;;;;;;;11.12;100.00;98887.78;4949200;29;20255;-77
2023/05/16 01:17:30;;;;;;;25.10;20.00;;;;;;;11.13;100.00;98886.00;4945930;29;20207;-77
2023/05/16 01:20:15;;;;;;;25.47;19.90;;;;;;;11.13;100.00;98892.13;4946674;28;20228;-77
2023/05/16 01:23:01;;;;;;;28.70;20.70;;;;;;;11.08;100.00;98894.25;4948291;28;20279;-77
2023/05/16 01:25:47;;;;;;;24.73;19.17;;;;;;;11.16;100.00;98891.06;4954016;28;20219;-77
2023/05/16 01:28:22;;;;;;;26.27;19.47;;;;;;;11.05;100.00;98889.16;4992028;28;20201;-77
2023/05/16 01:30:55;;;;;;;28.20;18.90;;;;;;;11.09;100.00;98895.09;4986907;28;20199;-78
2023/05/16 01:33:28;;;;;;;24.23;19.67;;;;;;;11.10;100.00;98891.50;4983074;28;20230;-77
2023/05/16 01:36:07;;;;;;;25.40;19.03;;;;;;;11.04;100.00;98899.88;4985237;28;20661;-77
2023/05/16 01:39:01;;;;;;;25.80;19.43;;;;;;;11.03;100.00;98895.53;4929092;29;20296;-77
2023/05/16 01:41:41;;;;;;;28.30;19.20;;;;;;;11.13;100.00;98889.47;4928891;29;20675;-77
2023/05/16 01:44:21;;;;;;;29.30;20.13;;;;;;;10.98;100.00;98890.53;4928989;29;20220;-77
2023/05/16 01:47:02;;;;;;;31.53;19.40;;;;;;;11.02;100.00;98885.91;4930018;29;20683;-77
2023/05/16 01:49:44;;;;;;;25.67;19.30;;;;;;;10.95;100.00;98895.22;4928162;29;20267;-77
2023/05/16 01:52:24;;;;;;;28.50;20.20;;;;;;;10.95;100.00;98892.56;4897173;29;20201;-77
2023/05/16 01:55:03;;;;;;;28.37;20.43;;;;;;;10.96;100.00;98896.91;4929494;29;20216;-77
2023/05/16 01:57:38;;;;;;;30.43;20.37;;;;;;;11.01;100.00;98900.09;4925694;29;20204;-77
2023/05/16 02:00:13;;;;;;;26.27;20.00;;;;;;;11.08;100.00;98894.25;4916213;29;20300;-77
2023/05/16 02:02:48;;;;;;;29.90;20.10;;;;;;;11.18;100.00;98892.63;4926463;29;20203;-77
2023/05/16 02:05:21;;;;;;;26.93;20.20;;;;;;;11.17;100.00;98900.69;4928962;29;20283;-77
2023/05/16 02:07:55;;;;;;;23.23;19.77;;;;;;;11.28;100.00;98892.84;4925867;29;20564;-77
2023/05/16 02:10:28;;;;;;;25.07;18.50;;;;;;;11.32;100.00;98898.78;4972532;28;20233;-78
2023/05/16 02:13:00;;;;;;;24.20;18.03;;;;;;;11.26;100.00;98892.09;4987826;28;20199;-77
2023/05/16 02:15:35;;;;;;;23.37;17.90;;;;;;;11.37;100.00;98886.03;4988348;28;20203;-77
2023/05/16 02:18:08;;;;;;;23.37;18.47;;;;;;;11.23;100.00;98886.19;4982960;28;20213;-77
2023/05/16 02:20:38;;;;;;;22.53;18.23;;;;;;;11.27;100.00;98885.84;4987591;28;20285;-77
2023/05/16 02:23:12;;;;;;;24.67;18.53;;;;;;;11.24;100.00;98893.19;4983356;28;20199;-77
2023/05/16 02:25:43;;;;;;;23.50;18.20;;;;;;;11.29;100.00;98886.59;4957429;28;20211;-77
2023/05/16 02:28:25;;;;;;;24.17;18.93;;;;;;;11.23;100.00;98887.03;4989320;28;20187;-77
2023/05/16 02:31:04;;;;;;;24.43;18.03;;;;;;;11.32;100.00;98882.88;4987127;28;20251;-77
2023/05/16 02:33:38;;;;;;;22.73;18.23;;;;;;;11.38;100.00;98888.56;4986001;28;20661;-77
2023/05/16 02:36:12;;;;;;;24.97;19.27;;;;;;;11.40;100.00;98891.97;4985091;28;20194;-77
2023/05/16 02:38:52;;;;;;;24.70;18.53;;;;;;;11.51;100.00;98900.97;4982846;28;20202;-77
2023/05/16 02:41:23;;;;;;;24.67;18.13;;;;;;;11.55;100.00;98900.63;4987381;28;20201;-77
2023/05/16 02:43:59;;;;;;;25.47;18.67;;;;;;;11.48;100.00;98894.06;4983124;28;20203;-78
2023/05/16 02:46:36;;;;;;;21.77;17.33;;;;;;;11.43;100.00;98893.56;4984763;28;20750;-77
2023/05/16 02:49:10;;;;;;;22.30;18.37;;;;;;;11.37;100.00;98892.19;4986210;28;20221;-78
2023/05/16 02:51:53;;;;;;;23.83;18.77;;;;;;;11.25;100.00;98885.09;4908899;29;20272;-78
2023/05/16 02:54:32;;;;;;;21.67;18.40;;;;;;;11.23;100.00;98899.44;4907639;29;20201;-77
2023/05/16 02:57:13;;;;;;;21.43;18.37;;;;;;;11.31;100.00;98889.13;4912302;29;20198;-77
2023/05/16 02:59:45;;;;;;;24.67;18.63;;;;;;;11.25;100.00;98889.56;4907053;29;20680;-77
2023/05/16 03:02:23;;;;;;;21.97;17.80;;;;;;;11.26;100.00;98897.41;4905726;29;20665;-78
2023/05/16 03:04:59;;;;;;;21.47;16.97;;;;;;;11.29;100.00;98897.22;4906850;29;20287;-77
2023/05/16 03:07:31;;;;;;;25.43;18.83;;;;;;;11.23;100.00;98889.69;4924153;29;20248;-77
2023/05/16 03:10:02;;;;;;;24.33;19.23;;;;;;;11.16;100.00;98891.91;4950453;28;20199;-77
2023/05/16 03:12:36;;;;;;;24.23;19.43;;;;;;;11.29;100.00;98897.22;4991704;28;20195;-77
2023/05/16 03:15:10;;;;;;;25.80;18.77;;;;;;;11.28;100.00;98910.53;4984790;28;20214;-77
2023/05/16 03:17:47;;;;;;;28.87;19.27;;;;;;;11.43;100.00;98912.97;4990724;28;20230;-77
2023/05/16 03:20:18;;;;;;;28.33;18.93;;;;;;;11.49;100.00;98913.50;4959312;28;20199;-77
2023/05/16 03:22:54;;;;;;;23.60;18.20;;;;;;;11.55;100.00;98910.38;4989978;28;20250;-78
2023/05/16 03:25:27;;;;;;;25.30;19.00;;;;;;;11.49;100.00;98910.84;4992055;28;20222;-78
2023/05/16 03:28:06;;;;;;;24.73;19.03;;;;;;;11.42;100.00;98911.28;4992712;28;20218;-77
2023/05/16 03:30:39;;;;;;;26.80;20.03;;;;;;;11.49;100.00;98922.31;4973864;28;20253;-77
2023/05/16 03:33:14;;;;;;;27.10;20.80;;;;;;;11.55;100.00;98924.50;4976592;28;20195;-78
2023/05/16 03:35:56;;;;;;;28.13;20.33;;;;;;;11.62;100.00;98922.25;4988218;28;20209;-78
2023/05/16 03:38:29;;;;;;;29.13;20.67;;;;;;;11.66;100.00;98929.88;4992195;28;20646;-77
2023/05/16 03:41:00;;;;;;;23.73;19.73;;;;;;;11.71;100.00;98925.09;4956412;28;20191;-78
2023/05/16 03:43:37;;;;;;;24.87;19.90;;;;;;;11.74;100.00;98919.56;4992129;28;20206;-77
2023/05/16 03:46:10;;;;;;;27.63;19.67;;;;;;;11.74;100.00;98924.88;4987381;28;20250;-77
2023/05/16 03:48:46;;;;;;;26.10;19.47;;;;;;;11.69;100.00;98918.22;4987489;28;20238;-78
2023/05/16 03:51:17;;;;;;;27.30;19.07;;;;;;;11.76;100.00;98922.94;4985486;28;20297;-77
2023/05/16 03:53:48;;;;;;;25.77;20.27;;;;;;;11.82;100.00;98928.81;4957487;28;20201;-77
2023/05/16 03:59:08;;;;;;;28.30;20.87;;;;;;;11.83;100.00;98933.16;4994246;28;20666;-77
2023/05/16 04:01:44;;;;;;;23.23;18.33;;;;;;;11.91;100.00;98934.28;4945926;29;20208;-77
2023/05/16 04:04:29;;;;;;;23.63;18.73;;;;;;;11.86;100.00;98933.75;4946678;29;20236;-77
2023/05/16 04:06:59;;;;;;;23.23;18.80;;;;;;;11.76;100.00;98930.06;4948543;29;20451;-78
2023/05/16 04:09:31;;;;;;;23.93;17.67;;;;;;;11.78;100.00;98945.91;4909488;29;20204;-77
2023/05/16 04:12:12;;;;;;;25.13;17.87;;;;;;;11.79;100.00;98945.78;4909940;29;20202;-77
2023/05/16 04:14:55;;;;;;;25.07;19.10;;;;;;;11.83;100.00;98949.06;4908059;29;20276;-77
2023/05/16 04:17:41;;;;;;;27.30;21.63;;;;;;;11.80;100.00;98951.97;4915505;29;20201;-77
2023/05/16 04:20:18;;;;;;;26.87;21.27;;;;;;;11.72;100.00;98963.09;4909358;29;20265;-78
2023/05/16 04:22:49;;;;;;;28.97;22.23;;;;;;;11.64;100.00;98970.75;4906517;29;20209;-78
2023/05/16 04:25:21;;;;;;;29.40;22.33;;;;;;;11.38;100.00;98980.53;4909799;29;20249;-77
2023/05/16 04:27:53;;;;;;;27.10;21.10;;;;;;;11.38;100.00;98991.13;4971596;28;20322;-78
2023/05/16 04:30:23;;;;;;;28.10;21.27;;;;;;;11.37;100.00;98989.44;4988770;28;20195;-77
2023/05/16 04:32:53;;;;;;;22.33;18.10;;;;;;;11.24;100.00;98986.81;4981981;28;20261;-77
2023/05/16 04:35:28;;;;;;;23.53;17.27;;;;;;;11.26;100.00;98992.84;4985890;28;20710;-77
2023/05/16 04:38:14;;;;;;;21.67;16.43;;;;;;;11.11;100.00;99004.53;4989824;28;20219;-77
2023/05/16 04:40:46;;;;;;;20.97;16.50;;;;;;;10.91;100.00;99003.25;4989880;28;20258;-77
2023/05/16 04:43:16;;;;;;;27.43;16.73;;;;;;;10.97;100.00;99020.50;4985913;28;20222;-77
2023/05/16 04:45:47;;;;;;;21.97;16.40;;;;;;;11.11;100.00;99020.44;4951176;29;20759;-77
2023/05/16 04:48:28;;;;;;;19.90;14.70;;;;;;;11.02;100.00;99031.66;4950245;29;20197;-77
2023/05/16 04:51:04;;;;;;;20.70;13.50;;;;;;;10.95;100.00;99035.66;4950897;29;20200;-78
2023/05/16 04:53:35;;;;;;;17.53;13.33;;;;;;;10.87;100.00;99039.69;4950887;29;20264;-77
2023/05/16 04:56:10;;;;;;;17.37;13.00;;;;;;;10.89;100.00;99040.41;4947712;29;20274;-78
2023/05/16 04:58:41;;;;;;;18.63;12.50;;;;;;;10.89;100.00;99047.53;4947121;29;20235;-78
2023/05/16 05:01:11;;;;;;;14.90;11.53;;;;;;;10.85;100.00;99054.00;4945634;29;20212;-77
2023/05/16 05:03:45;;;;;;;14.23;9.50;;;;;;;10.87;100.00;99057.38;4963897;28;20193;-78
2023/05/16 05:06:19;;;;;;;12.70;9.60;;;;;;;10.87;100.00;99060.88;4972642;28;20215;-78
2023/05/16 05:08:52;;;;;;;13.40;9.77;;;;;;;10.76;100.00;99060.75;4969502;28;20210;-78
2023/05/16 05:11:22;;;;;;;13.10;9.93;;;;;;;10.73;100.00;99068.06;4969665;28;20203;-77
2023/05/16 05:13:55;;;;;;;14.27;9.57;;;;;;;10.69;100.00;99077.97;4965023;28;20215;-77
2023/05/16 05:16:29;;;;;;;12.77;9.23;;;;;;;10.71;100.00;99077.88;4969732;28;20200;-77
2023/05/16 05:19:06;;;;;;;11.07;8.07;;;;;;;10.72;100.00;99079.59;4973813;28;20198;-78
2023/05/16 05:21:40;;;;;;;11.93;9.37;;;;;;;10.67;100.00;99079.88;4973381;28;20199;-77
2023/05/16 05:24:13;;;;;;;11.70;8.93;;;;;;;10.63;100.00;99086.34;4968240;28;20651;-78
2023/05/16 05:26:44;;;;;;;11.93;8.87;;;;;;;10.73;100.00;99091.91;4972585;28;20262;-78
2023/05/16 05:29:25;;;;;;;12.00;8.40;;;;;;;10.67;100.00;99092.28;4971023;28;20206;-78
2023/05/16 05:31:57;;;;;;;11.53;8.47;;;;;;;10.68;100.00;99091.34;4967853;28;20206;-78
2023/05/16 05:34:31;;;;;;;11.17;8.50;;;;;;;10.72;100.00;99093.69;4971631;28;20206;-78
2023/05/16 05:37:04;;;;;;;11.53;8.57;;;;;;;10.64;100.00;99101.28;4970906;28;20602;-78
2023/05/16 05:39:58;;;;;;;10.80;8.27;;;;;;;10.62;100.00;99105.84;4913978;29;20237;-77
2023/05/16 05:42:29;;;;;;;10.30;7.60;;;;;;;10.67;100.00;99106.38;4906019;29;20232;-78
2023/05/16 05:45:00;;;;;;;11.13;7.77;;;;;;;10.70;100.00;99103.53;4900676;29;20214;-78
2023/05/16 05:47:34;;;;;;;10.77;8.20;;;;;;;10.73;100.00;99113.09;4912068;29;20221;-78
2023/05/16 05:50:06;;;;;;;12.13;8.00;;;;;;;10.57;100.00;99110.56;4879855;29;20680;-78
2023/05/16 05:52:39;;;;;;;9.87;6.97;;;;;;;10.60;100.00;99110.38;4902613;29;20235;-78
2023/05/16 05:55:11;;;;;;;8.47;6.63;;;;;;;10.71;100.00;99112.31;4911064;29;20205;-78
2023/05/16 05:57:46;;;;;;;11.00;6.60;;;;;;;10.71;100.00;99117.63;4942121;28;20196;-78
2023/05/16 06:00:21;;;;;;;8.07;6.37;;;;;;;10.71;100.00;99120.25;4972152;28;20213;-78
2023/05/16 06:02:53;;;;;;;7.67;6.40;;;;;;;10.83;100.00;99119.47;4968330;28;20211;-78
2023/05/16 06:05:30;;;;;;;9.10;6.37;;;;;;;10.82;100.00;99121.28;4969427;28;20237;-78
2023/05/16 06:08:04;;;;;;;7.27;5.87;;;;;;;10.74;100.00;99122.72;4986615;28;20225;-78
2023/05/16 06:10:37;;;;;;;9.73;5.97;;;;;;;10.74;100.00;99128.03;4972569;28;20265;-78
2023/05/16 06:13:23;;;;;;;6.50;5.80;;;;;;;10.87;100.00;99140.38;4971520;28;20273;-78
2023/05/16 06:15:57;;;;;;;8.23;5.47;;;;;;;10.90;100.00;99139.31;4986043;28;20203;-78
2023/05/16 06:18:29;;;;;;;5.57;4.90;;;;;;;10.83;100.00;99141.53;4987061;28;20258;-77
2023/05/16 06:21:09;;;;;;;7.43;5.30;;;;;;;10.98;100.00;99141.47;4985907;28;20199;-78
2023/05/16 06:23:47;;;;;;;6.50;5.10;;;;;;;10.99;100.00;99129.91;4991581;28;20231;-78
2023/05/16 06:26:17;;;;;;;5.87;5.00;;;;;;;10.97;100.00;99140.59;4983491;28;20249;-78
2023/05/16 06:28:50;;;;;;;7.07;4.80;;;;;;;11.00;100.00;99148.38;4983294;28;20281;-78
2023/05/16 06:31:26;;;;;;;6.37;4.53;;;;;;;10.96;100.00;99154.81;4989498;28;20191;-78
2023/05/16 06:34:02;;;;;;;4.23;3.00;;;;;;;11.00;100.00;99152.81;4975903;28;20717;-77
2023/05/16 06:36:34;;;;;;;2.10;1.90;;;;;;;10.52;100.00;99153.25;4992532;28;20222;-77
2023/05/16 06:39:08;;;;;;;3.10;1.80;;;;;;;10.48;100.00;99154.38;4986576;28;20218;-78
2023/05/16 06:41:41;;;;;;;1.87;1.73;;;;;;;10.36;100.00;99171.06;4986748;28;20281;-78
2023/05/16 06:44:19;;;;;;;3.00;1.77;;;;;;;10.42;100.00;99169.81;4987735;28;20231;-78
2023/05/16 06:46:56;;;;;;;3.93;1.80;;;;;;;10.34;100.00;99174.75;4995155;28;20677;-78
2023/05/16 06:49:41;;;;;;;1.67;1.53;;;;;;;10.31;100.00;99178.44;4996215;28;20770;-78
2023/05/16 06:52:15;;;;;;;2.10;1.90;;;;;;;10.44;100.00;99178.53;4989596;28;20214;-78
2023/05/16 06:54:55;;;;;;;3.23;2.30;;;;;;;10.22;100.00;99182.50;4951859;29;20196;-78
2023/05/16 06:57:28;;;;;;;3.87;1.97;;;;;;;10.09;100.00;99191.25;4952424;28;20244;-78
2023/05/16 06:59:58;;;;;;;2.90;1.80;;;;;;;9.99;100.00;99191.81;4948569;29;20200;-78
2023/05/16 07:02:35;;;;;;;3.93;2.00;;;;;;;10.16;100.00;99188.16;4950146;29;20200;-77
2023/05/16 07:05:10;;;;;;;4.03;2.13;;;;;;;9.98;100.00;99189.28;4949916;29;20311;-78
2023/05/16 07:07:43;;;;;;;5.37;2.07;;;;;;;9.95;100.00;99192.13;4952316;29;20399;-78
2023/05/16 07:10:35;;;;;;;3.40;1.83;;;;;;;9.90;100.00;99192.38;4940807;29;20295;-78
2023/05/16 07:13:09;;;;;;;3.70;2.20;;;;;;;10.04;100.00;99192.41;4970905;28;20194;-78
2023/05/16 07:15:46;;;;;;;3.80;2.37;;;;;;;9.99;100.00;99190.97;4990107;28;20226;-78
2023/05/16 07:18:16;;;;;;;2.20;1.63;;;;;;;10.03;100.00;99189.84;4990698;28;20211;-78
2023/05/16 07:20:51;;;;;;;3.03;1.87;;;;;;;10.11;100.00;99189.38;4986206;28;20199;-78
2023/05/16 07:23:25;;;;;;;2.77;1.90;;;;;;;10.17;100.00;99195.16;4914189;29;20210;-78
2023/05/16 07:26:16;;;;;;;4.03;2.03;;;;;;;10.34;100.00;99201.22;4908911;29;20257;-78
2023/05/16 07:28:47;;;;;;;3.63;1.73;;;;;;;10.37;100.00;99201.03;4908582;29;20770;-78
2023/05/16 07:31:19;;;;;;;3.40;1.80;;;;;;;10.37;100.00;99204.53;4911233;29;20206;-78
2023/05/16 07:33:49;;;;;;;3.63;2.20;;;;;;;10.60;100.00;99209.22;4913233;29;20198;-79
2023/05/16 07:36:23;;;;;;;4.37;2.10;;;;;;;10.58;100.00;99213.75;4898755;29;20210;-78
2023/05/16 07:38:56;;;;;;;4.20;1.90;;;;;;;10.64;100.00;99215.19;4913648;29;20253;-78
2023/05/16 07:41:33;;;;;;;6.53;1.90;;;;;;;10.65;100.00;99213.38;4907364;29;20294;-78
2023/05/16 07:44:09;;;;;;;5.50;2.00;;;;;;;10.78;100.00;99216.94;4906120;29;20239;-78
2023/05/16 07:46:43;;;;;;;6.47;2.07;;;;;;;10.68;100.00;99216.69;4911286;29;20222;-78
2023/05/16 07:49:18;;;;;;;5.10;2.13;;;;;;;10.68;100.00;99216.69;4985241;28;20226;-78
2023/05/16 07:51:57;;;;;;;5.33;2.40;;;;;;;10.84;100.00;99212.13;4987847;28;20302;-78
2023/05/16 07:54:30;;;;;;;5.80;2.07;;;;;;;10.82;100.00;99219.31;4991619;28;20198;-78
2023/05/16 07:57:12;;;;;;;5.13;2.10;;;;;;;10.68;100.00;99211.38;4990169;28;20191;-78
2023/05/16 07:59:45;;;;;;;5.70;2.27;;;;;;;10.76;100.00;99219.69;4994771;28;20191;-78
2023/05/16 08:02:17;;;;;;;5.27;2.60;;;;;;;10.53;100.00;99222.97;4992829;28;20677;-78
2023/05/16 08:04:49;;;;;;;5.37;2.63;;;;;;;10.52;100.00;99216.81;4991349;28;20227;-78
2023/05/16 08:07:22;;;;;;;4.33;2.37;;;;;;;10.64;100.00;99211.69;4992021;28;20278;-78
2023/05/16 08:09:53;;;;;;;8.43;2.80;;;;;;;10.78;100.00;99211.66;4941020;28;20199;-78
2023/05/16 08:12:34;;;;;;;8.03;2.60;;;;;;;10.86;100.00;99206.72;4969420;28;20202;-78
2023/05/16 08:15:06;;;;;;;8.70;2.63;;;;;;;10.86;100.00;99201.41;4983351;28;20198;-78
2023/05/16 08:17:43;;;;;;;8.67;2.70;;;;;;;11.00;100.00;99204.03;4990038;28;20203;-78
2023/05/16 08:20:16;;;;;;;9.40;2.60;;;;;;;11.21;100.00;99199.13;4984885;28;20278;-78
2023/05/16 08:22:54;;;;;;;7.03;2.50;;;;;;;11.46;100.00;99200.97;4990803;28;20230;-78
2023/05/16 08:25:26;;;;;;;6.70;2.70;;;;;;;11.28;100.00;99200.41;4989404;28;20277;-78
2023/05/16 08:28:03;;;;;;;6.77;2.53;;;;;;;11.33;100.00;99203.59;4986501;28;20225;-77
2023/05/16 08:30:37;;;;;;;5.13;2.40;;;;;;;11.37;100.00;99204.25;4988280;28;20199;-78
2023/05/16 08:33:14;;;;;;;5.90;2.60;;;;;;;11.53;100.00;99202.28;4989337;28;20203;-78
2023/05/16 08:35:51;;;;;;;10.37;2.53;;;;;;;11.62;100.00;99212.28;4987612;28;20249;-77
2023/05/16 08:38:26;;;;;;;8.67;2.70;;;;;;;11.61;100.00;99215.03;4990242;28;20241;-78
2023/05/16 08:40:59;;;;;;;7.00;2.50;;;;;;;11.43;100.00;99215.31;4991332;28;20249;-78
2023/05/16 08:43:35;;;;;;;7.43;2.40;;;;;;;11.43;100.00;99219.75;4991201;28;20282;-78
2023/05/16 08:46:12;;;;;;;5.63;2.40;;;;;;;11.55;100.00;99210.13;4993227;28;20278;-78
2023/05/16 08:48:47;;;;;;;9.37;2.90;;;;;;;11.72;100.00;99215.16;4987185;28;20218;-78
2023/05/16 08:51:24;;;;;;;6.77;2.63;;;;;;;11.58;100.00;99210.78;4983870;28;20206;-78
2023/05/16 08:54:05;;;;;;;8.03;2.60;;;;;;;11.61;100.00;99207.06;4973697;28;20206;-78
2023/05/16 08:56:41;;;;;;;7.33;2.80;;;;;;;11.70;100.00;99217.91;4989543;28;20195;-78
2023/05/16 08:59:19;;;;;;;7.47;2.80;;;;;;;11.93;100.00;99215.53;4991567;28;20202;-78
2023/05/16 09:01:53;;;;;;;6.17;2.50;;;;;;;11.74;100.00;99215.91;4975752;28;20195;-77
2023/05/16 09:04:24;;;;;;;7.27;2.87;;;;;;;11.91;100.00;99215.63;4993562;28;20278;-77
2023/05/16 09:06:55;;;;;;;8.07;2.60;;;;;;;11.33;100.00;99227.47;4986733;28;20359;-77
2023/05/16 09:09:29;;;;;;;10.97;2.80;;;;;;;11.38;100.00;99219.19;4990603;28;20282;-77
2023/05/16 09:12:00;;;;;;;6.67;2.20;;;;;;;11.56;100.00;99222.44;4987656;28;20202;-78
2023/05/16 09:14:34;;;;;;;7.07;2.67;;;;;;;11.27;100.00;99219.06;4989905;28;20234;-78
2023/05/16 09:20:10;;;;;;;7.93;2.57;;;;;;;11.24;100.00;99233.38;4993706;28;20246;-78
2023/05/16 09:22:42;;;;;;;12.17;2.97;;;;;;;11.46;100.00;99228.34;4988043;28;20191;-78
2023/05/16 09:25:17;;;;;;;6.57;2.70;;;;;;;11.36;100.00;99231.72;4990475;28;20275;-78
2023/05/16 09:28:00;;;;;;;7.20;2.73;;;;;;;11.20;100.00;99239.00;4991552;28;20657;-78
2023/05/16 09:30:35;;;;;;;8.30;2.50;;;;;;;11.16;100.00;99225.06;4986860;28;20262;-77
2023/05/16 09:33:07;;;;;;;7.57;2.73;;;;;;;11.32;100.00;99232.88;4990530;28;20207;-78
2023/05/16 09:35:36;;;;;;;5.73;2.47;;;;;;;11.44;100.00;99219.66;4983531;28;20254;-78
2023/05/16 09:38:17;;;;;;;8.60;2.53;;;;;;;11.27;100.00;99229.66;4977636;28;20198;-78
2023/05/16 09:40:50;;;;;;;8.13;2.30;;;;;;;11.30;100.00;99227.69;4989439;28;20203;-78
2023/05/16 09:43:26;;;;;;;5.90;2.13;;;;;;;11.33;100.00;99232.78;4989131;28;20220;-78
2023/05/16 09:46:00;;;;;;;7.87;2.17;;;;;;;11.41;100.00;99226.97;4987030;28;20195;-78
2023/05/16 09:48:30;;;;;;;7.53;2.87;;;;;;;11.70;100.00;99233.00;4989707;28;20586;-78
2023/05/16 09:51:03;;;;;;;5.40;2.07;;;;;;;12.18;100.00;99222.66;4986037;28;20191;-78
2023/05/16 09:53:34;;;;;;;7.07;2.33;;;;;;;12.47;100.00;99218.81;4989933;28;20195;-78
2023/05/16 09:56:06;;;;;;;9.83;2.37;;;;;;;12.58;100.00;99215.38;4985288;28;20214;-78
2023/05/16 09:58:39;;;;;;;6.10;1.97;;;;;;;12.73;100.00;99216.91;4990228;28;20250;-78
2023/05/16 10:01:12;;;;;;;6.43;1.80;;;;;;;12.74;100.00;99220.44;4987407;28;20214;-78
2023/05/16 10:03:43;;;;;;;6.73;2.30;;;;;;;12.76;100.00;99231.81;4987118;28;20199;-77
2023/05/16 10:06:16;;;;;;;8.57;1.90;;;;;;;12.73;100.00;99222.22;4985968;28;20532;-77
2023/05/16 10:08:49;;;;;;;7.23;2.00;;;;;;;12.73;100.00;99221.38;4988366;28;20269;-78
2023/05/16 10:11:20;;;;;;;8.20;2.20;;;;;;;13.27;100.00;99226.34;4987559;28;20217;-78
2023/05/16 10:13:52;;;;;;;7.57;1.80;;;;;;;13.75;100.00;99222.66;4982321;28;20226;-77
2023/05/16 10:16:23;;;;;;;6.80;1.87;;;;;;;13.68;100.00;99225.91;4983504;28;20203;-77
2023/05/16 10:18:56;;;;;;;6.50;1.70;;;;;;;14.26;100.00;99208.09;4985572;28;20191;-78
2023/05/16 10:21:28;;;;;;;4.70;1.70;;;;;;;14.12;100.00;99224.34;4988112;28;20290;-78
2023/05/16 10:24:04;;;;;;;6.87;1.77;;;;;;;14.02;100.00;99224.19;4982935;28;20225;-78
2023/05/16 10:26:35;;;;;;;7.60;1.90;;;;;;;14.37;100.00;99220.59;4982138;28;20207;-78
2023/05/16 10:29:04;;;;;;;5.73;1.47;;;;;;;14.59;100.00;99209.97;4985844;28;20225;-78
2023/05/16 10:31:36;;;;;;;3.97;1.60;;;;;;;14.84;100.00;99211.50;4985603;28;20254;-78
2023/05/16 10:34:06;;;;;;;7.90;1.67;;;;;;;15.13;100.00;99215.31;4983428;28;20246;-78
2023/05/16 10:36:36;;;;;;;5.13;1.53;;;;;;;14.75;97.52;99207.75;4984711;28;20199;-78
2023/05/16 10:39:05;;;;;;;8.30;2.00;;;;;;;14.55;98.54;99220.00;4989202;28;20199;-78
2023/05/16 10:41:35;;;;;;;6.73;1.70;;;;;;;14.44;100.00;99209.31;4988392;28;20214;-78
2023/05/16 10:44:04;;;;;;;5.47;1.53;;;;;;;14.32;100.00;99211.16;4984704;28;20246;-78
2023/05/16 10:46:35;;;;;;;7.30;1.80;;;;;;;14.22;99.95;99199.50;4979516;28;20206;-78
2023/05/16 10:49:20;;;;;;;6.10;2.17;;;;;;;14.33;100.00;99212.84;4988418;28;20704;-78
2023/05/16 10:52:03;;;;;;;6.23;1.70;;;;;;;14.50;100.00;99202.72;4984589;28;20267;-78
2023/05/16 10:54:42;;;;;;;5.10;1.30;;;;;;;14.08;100.00;99218.38;4983547;28;20209;-78
2023/05/16 10:57:14;;;;;;;4.50;1.40;;;;;;;14.08;94.05;99221.03;4985107;28;20209;-78
2023/05/16 10:59:45;;;;;;;5.90;1.60;;;;;;;14.18;86.53;99215.84;4988228;28;20198;-78
2023/05/16 11:02:41;;;;;;;6.13;1.60;;;;;;;15.27;89.75;99210.69;4987242;28;20203;-78
2023/05/16 11:05:14;;;;;;;7.90;1.27;;;;;;;15.00;90.06;99217.28;4989168;28;20661;-78
2023/05/16 11:07:42;;;;;;;8.43;1.73;;;;;;;15.25;81.41;99216.16;4983222;28;20275;-78
2023/05/16 11:10:16;;;;;;;5.40;1.30;;;;;;;15.11;87.37;99209.25;4990272;28;20229;-78
2023/05/16 11:12:48;;;;;;;5.30;1.60;;;;;;;14.74;88.63;99206.06;4996921;28;20192;-78
2023/05/16 11:15:22;;;;;;;7.30;1.50;;;;;;;14.26;88.54;99224.94;4994975;28;20214;-78
2023/05/16 11:18:03;;;;;;;3.77;1.27;;;;;;;14.26;85.43;99224.09;4994808;28;20187;-78
2023/05/16 11:20:33;;;;;;;3.67;1.13;;;;;;;14.88;81.08;99223.63;4994454;28;20253;-78
2023/05/16 11:23:21;;;;;;;5.50;1.30;;;;;;;15.03;70.93;99222.38;4990978;28;20192;-78
2023/05/16 11:25:53;;;;;;;6.03;1.57;;;;;;;15.90;69.64;99217.81;4993555;28;20286;-78
2023/05/16 11:28:24;;;;;;;5.20;1.40;;;;;;;16.16;69.05;99206.72;4990792;28;20203;-79
2023/05/16 11:30:58;;;;;;;7.73;1.63;;;;;;;16.06;71.78;99208.50;4989693;28;20214;-78
2023/05/16 11:33:35;;;;;;;5.57;1.43;;;;;;;16.20;70.32;99216.16;4983848;28;20561;-78
2023/05/16 11:36:05;;;;;;;6.70;1.60;;;;;;;16.35;66.09;99211.31;4988597;28;20280;-78
2023/05/16 11:38:43;;;;;;;3.70;1.30;;;;;;;16.36;67.97;99215.69;4995268;28;20260;-78
2023/05/16 11:41:15;;;;;;;7.47;1.40;;;;;;;16.10;66.31;99212.59;4984586;28;20207;-78
2023/05/16 11:43:45;;;;;;;10.33;1.80;;;;;;;15.05;70.96;99227.59;4988286;28;20647;-78
2023/05/16 11:46:14;;;;;;;4.47;1.40;;;;;;;15.53;69.94;99221.84;4987166;28;20203;-78
2023/05/16 11:48:46;;;;;;;4.50;1.43;;;;;;;15.74;66.94;99222.78;4993432;28;20255;-78
2023/05/16 11:51:20;;;;;;;5.87;1.40;;;;;;;16.44;64.02;99223.88;4988263;28;20215;-79
2023/05/16 11:53:49;;;;;;;5.87;1.23;;;;;;;16.42;65.31;99224.03;4985153;28;20206;-78
2023/05/16 11:56:18;;;;;;;5.30;1.40;;;;;;;15.40;61.66;99238.88;4988613;28;20651;-78
2023/05/16 11:58:47;;;;;;;4.53;1.50;;;;;;;15.87;61.46;99234.09;4990787;28;20214;-78
2023/05/16 12:01:21;;;;;;;4.23;1.20;;;;;;;16.50;59.64;99234.91;4987072;28;20199;-79